createdAt,value
2022-12-31T00:01:56.625Z,0.78
2022-12-31T00:06:58.323Z,0.92
2022-12-31T00:11:59.965Z,0.92
2022-12-31T00:17:01.704Z,0.93
2022-12-31T00:22:03.469Z,0.90
2022-12-31T00:27:05.081Z,0.89
2022-12-31T00:32:06.761Z,0.91
2022-12-31T00:37:08.450Z,0.86
2022-12-31T00:42:10.150Z,0.90
2022-12-31T00:47:11.811Z,0.72
2022-12-31T00:52:15.927Z,0.84
2022-12-31T00:57:17.628Z,0.88
2022-12-31T01:02:19.450Z,0.87
2022-12-31T01:07:21.294Z,0.88
2022-12-31T01:12:25.200Z,0.92
2022-12-31T01:17:28.416Z,0.87
2022-12-31T01:22:30.123Z,0.90
2022-12-31T01:27:31.893Z,0.90
2022-12-31T01:32:33.547Z,0.88
2022-12-31T01:37:35.434Z,0.74
2022-12-31T01:42:37.251Z,0.77
2022-12-31T01:47:45.638Z,0.77
2022-12-31T01:52:53.053Z,0.87
2022-12-31T01:57:59.335Z,0.85
2022-12-31T02:03:01.446Z,0.69
2022-12-31T02:08:03.733Z,0.71
2022-12-31T02:13:05.656Z,0.83
2022-12-31T02:18:32.479Z,0.82
2022-12-31T02:23:49.408Z,0.67
2022-12-31T02:29:09.756Z,0.82
2022-12-31T02:34:11.377Z,0.79
2022-12-31T02:39:14.601Z,0.77
2022-12-31T02:44:28.041Z,0.80
2022-12-31T02:49:47.786Z,0.77
2022-12-31T02:55:26.868Z,0.79
2022-12-31T03:00:49.692Z,0.74
2022-12-31T03:05:51.990Z,0.74
2022-12-31T03:10:53.804Z,0.73
2022-12-31T03:15:55.497Z,0.75
2022-12-31T03:21:22.753Z,0.78
2022-12-31T03:26:26.739Z,0.78
2022-12-31T03:31:28.419Z,0.79
2022-12-31T03:36:30.096Z,0.72
2022-12-31T03:41:31.733Z,0.78
2022-12-31T03:46:33.420Z,0.67
2022-12-31T03:51:35.065Z,0.72
2022-12-31T03:56:36.724Z,0.76
2022-12-31T04:01:38.544Z,0.72
2022-12-31T04:06:40.718Z,0.69
2022-12-31T04:11:42.456Z,0.70
2022-12-31T04:16:44.839Z,0.72
2022-12-31T04:21:46.648Z,0.68
2022-12-31T04:26:48.803Z,0.63
2022-12-31T04:31:50.720Z,0.71
2022-12-31T04:36:52.468Z,0.67
2022-12-31T04:41:54.606Z,0.69
2022-12-31T04:46:56.264Z,0.57
2022-12-31T04:51:58.103Z,0.54
2022-12-31T04:56:59.775Z,0.63
2022-12-31T05:02:01.760Z,0.65
2022-12-31T05:07:03.677Z,0.60
2022-12-31T05:12:05.725Z,0.70
2022-12-31T05:17:07.430Z,0.66
2022-12-31T05:22:27.533Z,0.67
2022-12-31T05:27:31.395Z,0.64
2022-12-31T05:32:33.750Z,0.63
2022-12-31T05:37:35.380Z,0.62
2022-12-31T05:42:37.228Z,0.61
2022-12-31T05:47:42.343Z,0.62
2022-12-31T05:52:47.660Z,0.58
2022-12-31T05:57:49.670Z,0.54
2022-12-31T06:02:51.472Z,0.61
2022-12-31T06:07:53.182Z,0.65
2022-12-31T06:12:54.849Z,0.53
2022-12-31T06:17:56.592Z,0.55
2022-12-31T06:22:58.390Z,0.56
2022-12-31T06:28:00.175Z,0.58
2022-12-31T06:33:01.900Z,0.53
2022-12-31T06:38:03.762Z,0.56
2022-12-31T06:43:05.911Z,0.62
2022-12-31T06:48:07.887Z,0.70
2022-12-31T06:53:09.668Z,0.68
2022-12-31T06:58:16.096Z,0.83
2022-12-31T07:03:43.997Z,0.76
2022-12-31T07:08:59.344Z,0.77
2022-12-31T07:14:22.366Z,0.66
2022-12-31T07:20:03.488Z,0.79
2022-12-31T07:25:07.268Z,0.75
2022-12-31T07:30:16.177Z,0.86
2022-12-31T07:35:18.753Z,0.90
2022-12-31T07:40:43.817Z,0.93
2022-12-31T07:45:55.160Z,0.92
2022-12-31T07:50:57.943Z,0.99
2022-12-31T07:56:01.864Z,1.08
2022-12-31T08:01:04.395Z,1.11
2022-12-31T08:06:34.248Z,1.22
2022-12-31T08:11:47.523Z,1.25
2022-12-31T08:16:49.723Z,1.23
2022-12-31T08:22:28.964Z,1.32
2022-12-31T08:27:49.300Z,1.53
2022-12-31T08:33:13.578Z,1.44
2022-12-31T08:38:27.710Z,1.43
2022-12-31T08:43:55.496Z,1.45
2022-12-31T08:48:57.552Z,1.59
2022-12-31T08:53:59.563Z,1.82
2022-12-31T08:59:28.180Z,1.84
2022-12-31T09:05:08.027Z,1.84
2022-12-31T09:10:35.721Z,1.74
2022-12-31T09:15:47.201Z,1.76
2022-12-31T09:20:49.141Z,1.93
2022-12-31T09:26:15.609Z,1.89
2022-12-31T09:31:27.254Z,1.92
2022-12-31T09:36:53.266Z,2.02
2022-12-31T09:42:00.790Z,2.17
2022-12-31T09:47:35.091Z,2.06
2022-12-31T09:52:58.711Z,2.13
2022-12-31T09:58:18.694Z,2.17
2022-12-31T10:03:54.387Z,2.65
2022-12-31T10:09:14.177Z,2.67
2022-12-31T10:14:46.981Z,2.66
2022-12-31T10:20:15.742Z,2.60
2022-12-31T10:25:51.363Z,2.64
2022-12-31T10:31:15.422Z,2.85
2022-12-31T10:36:31.965Z,2.84
2022-12-31T10:42:11.092Z,2.74
2022-12-31T10:48:00.567Z,3.04
2022-12-31T10:53:39.838Z,3.06
2022-12-31T10:59:03.191Z,3.32
2022-12-31T11:04:14.014Z,3.41
2022-12-31T11:09:34.593Z,3.94
2022-12-31T11:14:42.475Z,3.87
2022-12-31T11:19:51.778Z,3.67
2022-12-31T11:25:13.344Z,3.94
2022-12-31T11:30:51.750Z,4.52
2022-12-31T11:36:19.913Z,4.46
2022-12-31T11:41:39.822Z,4.90
2022-12-31T11:46:50.530Z,4.38
2022-12-31T11:51:52.266Z,4.31
2022-12-31T11:57:10.544Z,5.18
2022-12-31T12:02:36.217Z,4.67
2022-12-31T12:07:38.674Z,5.26
2022-12-31T12:12:42.101Z,4.99
2022-12-31T12:17:44.045Z,5.20
2022-12-31T12:22:56.454Z,4.78
2022-12-31T12:27:58.165Z,5.10
2022-12-31T12:33:04.847Z,6.61
2022-12-31T12:38:12.715Z,7.35
2022-12-31T12:43:27.291Z,5.90
2022-12-31T12:48:40.178Z,5.60
2022-12-31T12:54:20.834Z,5.87
2022-12-31T12:59:44.187Z,6.06
2022-12-31T13:05:03.007Z,6.48
2022-12-31T13:10:33.150Z,5.80
2022-12-31T13:15:45.623Z,5.39
2022-12-31T13:21:01.476Z,5.67
2022-12-31T13:26:19.998Z,6.01
2022-12-31T13:31:28.959Z,5.94
2022-12-31T13:36:33.038Z,7.07
2022-12-31T13:41:45.418Z,5.98
2022-12-31T13:46:54.170Z,7.22
2022-12-31T13:52:17.904Z,5.79
2022-12-31T13:57:33.778Z,5.43
2022-12-31T14:02:54.049Z,5.95
2022-12-31T14:07:59.696Z,5.55
2022-12-31T14:13:04.314Z,5.21
2022-12-31T14:18:33.502Z,5.20
2022-12-31T14:24:04.276Z,5.25
2022-12-31T14:29:09.055Z,4.87
2022-12-31T14:34:49.831Z,5.06
2022-12-31T14:39:57.316Z,4.82
2022-12-31T14:45:15.345Z,4.87
2022-12-31T14:50:29.120Z,4.60
2022-12-31T14:55:35.893Z,4.57
2022-12-31T15:00:38.970Z,4.48
2022-12-31T15:05:54.300Z,4.33
2022-12-31T15:11:26.728Z,4.30
2022-12-31T15:17:05.992Z,4.25
2022-12-31T15:22:22.636Z,4.16
2022-12-31T15:27:37.979Z,4.11
2022-12-31T15:32:42.521Z,4.22
2022-12-31T15:37:44.212Z,4.05
2022-12-31T15:42:55.596Z,4.10
2022-12-31T15:48:00.471Z,4.15
2022-12-31T15:53:07.179Z,4.08
2022-12-31T15:58:26.568Z,4.02
2022-12-31T16:03:30.936Z,4.06
2022-12-31T16:08:34.749Z,3.98
2022-12-31T16:13:41.960Z,3.92
2022-12-31T16:18:44.215Z,4.24
2022-12-31T16:23:51.324Z,3.96
2022-12-31T16:28:53.133Z,3.91
2022-12-31T16:34:13.849Z,3.80
2022-12-31T16:39:39.357Z,3.68
2022-12-31T16:44:41.788Z,3.66
2022-12-31T16:49:46.437Z,3.70
2022-12-31T16:54:49.059Z,3.63
2022-12-31T17:00:00.467Z,3.67
2022-12-31T17:05:02.429Z,3.66
2022-12-31T17:10:06.763Z,3.69
2022-12-31T17:15:19.609Z,3.58
2022-12-31T17:20:28.012Z,3.67
2022-12-31T17:25:36.310Z,3.56
2022-12-31T17:30:42.438Z,3.49
2022-12-31T17:35:45.426Z,3.47
2022-12-31T17:40:51.740Z,3.47
2022-12-31T17:45:54.957Z,3.41
2022-12-31T17:50:59.515Z,3.44
2022-12-31T17:56:05.283Z,3.50
2022-12-31T18:01:08.844Z,3.46
2022-12-31T18:06:16.628Z,3.49
2022-12-31T18:11:22.286Z,3.34
2022-12-31T18:16:24.498Z,3.41
2022-12-31T18:21:32.725Z,3.32
2022-12-31T18:26:34.793Z,3.24
2022-12-31T18:31:37.106Z,3.23
2022-12-31T18:36:38.889Z,3.26
2022-12-31T18:41:49.508Z,3.28
2022-12-31T18:46:51.486Z,3.22
2022-12-31T18:51:54.378Z,3.23
2022-12-31T18:56:57.347Z,3.19
2022-12-31T19:01:59.208Z,3.14
2022-12-31T19:07:00.924Z,3.11
2022-12-31T19:12:02.699Z,3.07
2022-12-31T19:22:04.937Z,3.06
2022-12-31T19:27:06.680Z,2.94
2022-12-31T19:32:08.402Z,3.02
2022-12-31T19:37:15.237Z,3.05
2022-12-31T19:42:16.786Z,3.02
2022-12-31T19:47:18.765Z,2.95
2022-12-31T19:52:20.421Z,3.01
2022-12-31T19:57:22.158Z,3.02
2022-12-31T20:02:23.934Z,2.98
2022-12-31T20:07:27.348Z,2.90
2022-12-31T20:12:29.336Z,2.90
2022-12-31T20:17:31.155Z,2.88
2022-12-31T20:22:33.088Z,2.85
2022-12-31T20:27:35.251Z,2.81
2022-12-31T20:32:36.944Z,2.80
2022-12-31T20:37:38.634Z,2.78
2022-12-31T20:42:41.240Z,2.72
2022-12-31T20:47:42.961Z,2.68
2022-12-31T20:52:44.801Z,2.70
2022-12-31T20:57:46.481Z,2.68
2022-12-31T21:02:57.653Z,2.66
2022-12-31T21:08:05.739Z,2.61
2022-12-31T21:13:07.804Z,2.54
2022-12-31T21:18:09.466Z,2.54
2022-12-31T21:23:11.065Z,2.44
2022-12-31T21:28:13.251Z,2.43
2022-12-31T21:33:14.901Z,2.49
2022-12-31T21:38:16.914Z,2.41
2022-12-31T21:43:19.130Z,2.47
2022-12-31T21:48:20.828Z,2.45
2022-12-31T21:53:30.551Z,2.38
2022-12-31T21:58:40.320Z,2.35
2022-12-31T22:03:42.627Z,2.32
2022-12-31T22:08:45.969Z,2.36
2022-12-31T22:13:48.856Z,2.26
2022-12-31T22:18:50.742Z,2.25
2022-12-31T22:23:54.950Z,2.23
2022-12-31T22:28:59.976Z,2.30
2022-12-31T22:34:02.130Z,2.25
2022-12-31T22:39:03.970Z,2.20
2022-12-31T22:44:05.854Z,2.26
2022-12-31T22:49:12.248Z,2.23
2022-12-31T22:54:14.994Z,2.32
2022-12-31T22:59:17.473Z,2.27
2022-12-31T23:04:19.278Z,2.16
2022-12-31T23:09:39.720Z,2.05
2022-12-31T23:15:00.258Z,2.05
2022-12-31T23:20:21.459Z,2.00
2022-12-31T23:25:23.190Z,1.95
2022-12-31T23:30:25.016Z,1.95
2022-12-31T23:35:26.755Z,2.00
2022-12-31T23:40:34.388Z,2.02
2022-12-31T23:45:36.750Z,2.03
2022-12-31T23:50:40.702Z,1.94
2022-12-31T23:55:42.438Z,2.01
